createdAt,value
2023-02-14T00:00:31.000Z,79.54
2023-02-14T00:01:31.000Z,79.75
2023-02-14T00:02:31.000Z,79.52
2023-02-14T00:03:31.000Z,79.64
2023-02-14T00:04:33.000Z,79.67
2023-02-14T00:05:31.000Z,79.40
2023-02-14T00:06:35.000Z,79.75
2023-02-14T00:07:31.000Z,79.54
2023-02-14T00:08:31.000Z,79.91
2023-02-14T00:09:31.000Z,79.39
2023-02-14T00:10:31.000Z,79.54
2023-02-14T00:11:31.000Z,79.78
2023-02-14T00:12:31.000Z,79.67
2023-02-14T00:13:31.000Z,79.67
2023-02-14T00:14:36.000Z,79.79
2023-02-14T00:15:31.000Z,79.87
2023-02-14T00:16:31.000Z,80.29
2023-02-14T00:17:31.000Z,80.34
2023-02-14T00:18:36.000Z,80.20
2023-02-14T00:19:33.000Z,80.31
2023-02-14T00:20:31.000Z,80.62
2023-02-14T00:21:36.000Z,80.30
2023-02-14T00:22:31.000Z,80.23
2023-02-14T00:23:31.000Z,80.43
2023-02-14T00:24:31.000Z,80.44
2023-02-14T00:25:34.000Z,80.69
2023-02-14T00:26:31.000Z,80.89
2023-02-14T00:27:31.000Z,80.73
2023-02-14T00:28:31.000Z,81.22
2023-02-14T00:29:31.000Z,80.91
2023-02-14T00:30:33.000Z,81.00
2023-02-14T00:31:32.000Z,81.23
2023-02-14T00:32:31.000Z,80.93
2023-02-14T00:33:31.000Z,80.93
2023-02-14T00:34:32.000Z,81.04
2023-02-14T00:35:31.000Z,81.14
2023-02-14T00:36:31.000Z,81.44
2023-02-14T00:37:31.000Z,80.80
2023-02-14T00:38:32.000Z,81.21
2023-02-14T00:39:31.000Z,81.31
2023-02-14T00:40:31.000Z,81.18
2023-02-14T00:41:32.000Z,81.34
2023-02-14T00:42:31.000Z,80.98
2023-02-14T00:43:31.000Z,80.92
2023-02-14T00:44:31.000Z,80.98
2023-02-14T00:45:31.000Z,80.98
2023-02-14T00:46:31.000Z,81.09
2023-02-14T00:47:31.000Z,81.46
2023-02-14T00:48:31.000Z,81.91
2023-02-14T00:49:31.000Z,81.51
2023-02-14T00:50:31.000Z,81.12
2023-02-14T00:51:31.000Z,81.33
2023-02-14T00:52:31.000Z,80.96
2023-02-14T00:53:31.000Z,81.21
2023-02-14T00:54:31.000Z,80.75
2023-02-14T00:55:31.000Z,80.81
2023-02-14T00:56:31.000Z,80.99
2023-02-14T00:57:31.000Z,81.08
2023-02-14T00:58:31.000Z,81.16
2023-02-14T00:59:31.000Z,81.09
2023-02-14T01:00:31.000Z,81.24
2023-02-14T01:01:31.000Z,81.39
2023-02-14T01:02:31.000Z,81.41
2023-02-14T01:03:32.000Z,81.20
2023-02-14T01:04:31.000Z,81.04
2023-02-14T01:05:31.000Z,81.19
2023-02-14T01:06:31.000Z,81.55
2023-02-14T01:07:31.000Z,81.50
2023-02-14T01:08:31.000Z,81.28
2023-02-14T01:09:30.000Z,81.22
2023-02-14T01:10:31.000Z,81.43
2023-02-14T01:11:31.000Z,81.46
2023-02-14T01:12:31.000Z,81.51
2023-02-14T01:13:30.000Z,81.51
2023-02-14T01:14:31.000Z,81.73
2023-02-14T01:15:31.000Z,81.87
2023-02-14T01:16:31.000Z,81.69
2023-02-14T01:17:31.000Z,81.33
2023-02-14T01:18:31.000Z,81.67
2023-02-14T01:19:31.000Z,81.60
2023-02-14T01:20:31.000Z,81.81
2023-02-14T01:21:32.000Z,81.59
2023-02-14T01:22:35.000Z,81.70
2023-02-14T01:23:30.000Z,81.74
2023-02-14T01:24:31.000Z,81.32
2023-02-14T01:25:31.000Z,81.34
2023-02-14T01:26:32.000Z,81.65
2023-02-14T01:27:31.000Z,81.77
2023-02-14T01:28:31.000Z,81.63
2023-02-14T01:29:31.000Z,81.59
2023-02-14T01:30:31.000Z,81.85
2023-02-14T01:31:32.000Z,81.53
2023-02-14T01:32:32.000Z,81.86
2023-02-14T01:33:31.000Z,82.03
2023-02-14T01:34:31.000Z,82.30
2023-02-14T01:35:36.000Z,81.85
2023-02-14T01:36:35.000Z,82.10
2023-02-14T01:37:30.000Z,81.85
2023-02-14T01:38:30.000Z,82.27
2023-02-14T01:39:30.000Z,82.00
2023-02-14T01:40:30.000Z,81.87
2023-02-14T01:41:33.000Z,82.35
2023-02-14T01:42:31.000Z,81.95
2023-02-14T01:43:49.000Z,81.95
2023-02-14T01:44:52.000Z,81.94
2023-02-14T01:45:30.000Z,81.78
2023-02-14T01:46:35.000Z,82.10
2023-02-14T01:47:39.000Z,82.26
2023-02-14T01:48:30.000Z,82.17
2023-02-14T01:49:36.000Z,82.26
2023-02-14T01:50:35.000Z,82.53
2023-02-14T01:51:35.000Z,82.26
2023-02-14T01:52:35.000Z,82.61
2023-02-14T01:53:31.000Z,82.37
2023-02-14T01:54:36.000Z,82.28
2023-02-14T01:55:36.000Z,82.43
2023-02-14T01:56:35.000Z,82.72
2023-02-14T01:57:43.000Z,82.99
2023-02-14T01:58:37.000Z,82.76
2023-02-14T01:59:36.000Z,82.88
2023-02-14T02:00:37.000Z,82.79
2023-02-14T02:01:30.000Z,82.51
2023-02-14T02:02:30.000Z,83.05
2023-02-14T02:03:36.000Z,82.70
2023-02-14T02:04:35.000Z,83.15
2023-02-14T02:05:30.000Z,82.84
2023-02-14T02:06:36.000Z,82.89
2023-02-14T02:07:31.000Z,82.98
2023-02-14T02:08:38.000Z,82.99
2023-02-14T02:09:40.000Z,83.45
2023-02-14T02:10:31.000Z,83.72
2023-02-14T02:11:31.000Z,83.55
2023-02-14T02:12:32.000Z,83.92
2023-02-14T02:13:31.000Z,83.71
2023-02-14T02:14:32.000Z,83.45
2023-02-14T02:15:41.000Z,83.52
2023-02-14T02:16:55.000Z,83.43
2023-02-14T02:17:41.000Z,83.77
2023-02-14T02:18:41.000Z,83.86
2023-02-14T02:19:41.000Z,83.91
2023-02-14T02:20:51.000Z,83.56
2023-02-14T02:21:41.000Z,83.42
2023-02-14T02:22:48.000Z,83.70
2023-02-14T02:23:41.000Z,84.34
2023-02-14T02:24:54.000Z,84.23
2023-02-14T02:25:41.000Z,84.24
2023-02-14T02:26:41.000Z,83.95
2023-02-14T02:27:41.000Z,83.70
2023-02-14T02:28:41.000Z,84.17
2023-02-14T02:30:04.000Z,84.53
2023-02-14T02:30:54.000Z,84.76
2023-02-14T02:31:51.000Z,84.72
2023-02-14T02:32:54.000Z,84.75
2023-02-14T02:33:41.000Z,84.48
2023-02-14T02:34:51.000Z,84.88
2023-02-14T02:35:53.000Z,84.80
2023-02-14T02:36:51.000Z,84.89
2023-02-14T02:37:48.000Z,84.95
2023-02-14T02:38:51.000Z,85.13
2023-02-14T02:39:43.000Z,85.20
2023-02-14T02:40:41.000Z,85.40
2023-02-14T02:41:45.000Z,85.09
2023-02-14T02:42:46.000Z,85.18
2023-02-14T02:43:41.000Z,85.44
2023-02-14T02:44:56.000Z,85.57
2023-02-14T02:45:51.000Z,85.42
2023-02-14T02:46:46.000Z,85.40
2023-02-14T02:47:51.000Z,85.10
2023-02-14T02:48:41.000Z,85.45
2023-02-14T02:49:59.000Z,85.25
2023-02-14T02:50:44.000Z,85.28
2023-02-14T02:51:45.000Z,84.99
2023-02-14T02:52:47.000Z,85.37
2023-02-14T02:53:49.000Z,85.21
2023-02-14T02:54:52.000Z,85.16
2023-02-14T02:55:57.000Z,85.07
2023-02-14T02:56:46.000Z,84.99
2023-02-14T02:57:35.000Z,84.80
2023-02-14T02:58:40.000Z,85.01
2023-02-14T02:59:40.000Z,85.07
2023-02-14T03:00:31.000Z,84.80
2023-02-14T03:01:36.000Z,85.31
2023-02-14T03:02:37.000Z,85.08
2023-02-14T03:03:38.000Z,85.24
2023-02-14T03:04:41.000Z,84.88
2023-02-14T03:05:33.000Z,84.64
2023-02-14T03:06:32.000Z,84.82
2023-02-14T03:07:37.000Z,84.88
2023-02-14T03:08:31.000Z,85.13
2023-02-14T03:09:50.000Z,85.21
2023-02-14T03:10:35.000Z,85.13
2023-02-14T03:11:31.000Z,85.30
2023-02-14T03:12:54.000Z,85.54
2023-02-14T03:13:51.000Z,85.35
2023-02-14T03:14:48.000Z,85.23
2023-02-14T03:15:50.000Z,85.19
2023-02-14T03:16:42.000Z,85.16
2023-02-14T03:18:00.000Z,85.19
2023-02-14T03:18:59.000Z,85.42
2023-02-14T03:19:41.000Z,85.38
2023-02-14T03:20:50.000Z,85.19
2023-02-14T03:21:41.000Z,85.16
2023-02-14T03:22:47.000Z,85.05
2023-02-14T03:23:38.000Z,85.40
2023-02-14T03:24:42.000Z,85.38
2023-02-14T03:25:45.000Z,85.16
2023-02-14T03:26:44.000Z,85.44
2023-02-14T03:27:37.000Z,85.28
2023-02-14T03:28:41.000Z,85.23
2023-02-14T03:29:59.000Z,85.50
2023-02-14T03:30:45.000Z,85.33
2023-02-14T03:31:40.000Z,85.12
2023-02-14T03:32:39.000Z,85.65
2023-02-14T03:33:51.000Z,85.52
2023-02-14T03:34:36.000Z,85.97
2023-02-14T03:35:42.000Z,85.42
2023-02-14T03:36:51.000Z,85.49
2023-02-14T03:37:38.000Z,85.58
2023-02-14T03:38:48.000Z,85.40
2023-02-14T03:39:41.000Z,85.50
2023-02-14T03:40:46.000Z,85.38
2023-02-14T03:41:38.000Z,85.44
2023-02-14T03:42:37.000Z,85.59
2023-02-14T03:43:54.000Z,85.63
2023-02-14T03:44:34.000Z,85.62
2023-02-14T03:45:35.000Z,85.86
2023-02-14T03:46:38.000Z,85.60
2023-02-14T03:47:34.000Z,85.52
2023-02-14T03:48:33.000Z,85.78
2023-02-14T03:49:35.000Z,85.71
2023-02-14T03:50:33.000Z,85.77
2023-02-14T03:51:34.000Z,85.91
2023-02-14T03:52:33.000Z,85.58
2023-02-14T03:53:35.000Z,85.66
2023-02-14T03:54:32.000Z,85.46
2023-02-14T03:55:37.000Z,85.42
2023-02-14T03:56:39.000Z,85.39
2023-02-14T03:57:41.000Z,85.74
2023-02-14T03:58:38.000Z,85.80
2023-02-14T03:59:31.000Z,86.03
2023-02-14T04:00:37.000Z,86.02
2023-02-14T04:01:43.000Z,86.00
2023-02-14T04:02:39.000Z,85.87
2023-02-14T04:03:33.000Z,86.47
2023-02-14T04:04:35.000Z,86.04
2023-02-14T04:05:32.000Z,86.05
2023-02-14T04:06:31.000Z,85.72
2023-02-14T04:07:43.000Z,85.99
2023-02-14T04:08:31.000Z,85.98
2023-02-14T04:09:30.000Z,86.05
2023-02-14T04:10:30.000Z,86.01
2023-02-14T04:11:33.000Z,86.03
2023-02-14T04:12:30.000Z,85.87
2023-02-14T04:13:31.000Z,85.85
2023-02-14T04:14:30.000Z,85.94
2023-02-14T04:15:30.000Z,85.93
2023-02-14T04:16:45.000Z,85.88
2023-02-14T04:17:35.000Z,85.97
2023-02-14T04:18:35.000Z,85.81
2023-02-14T04:19:30.000Z,85.88
2023-02-14T04:20:30.000Z,85.96
2023-02-14T04:21:30.000Z,85.89
2023-02-14T04:22:30.000Z,85.54
2023-02-14T04:23:30.000Z,85.75
2023-02-14T04:24:30.000Z,85.72
2023-02-14T04:25:30.000Z,85.65
2023-02-14T04:26:30.000Z,85.66
2023-02-14T04:27:30.000Z,85.96
2023-02-14T04:28:30.000Z,85.84
2023-02-14T04:29:30.000Z,86.03
2023-02-14T04:30:30.000Z,85.86
2023-02-14T04:31:30.000Z,86.07
2023-02-14T04:32:30.000Z,85.75
2023-02-14T04:33:31.000Z,85.80
2023-02-14T04:34:30.000Z,85.85
2023-02-14T04:35:30.000Z,85.84
2023-02-14T04:36:30.000Z,85.78
2023-02-14T04:37:31.000Z,85.52
2023-02-14T04:38:30.000Z,85.55
2023-02-14T04:39:31.000Z,85.38
2023-02-14T04:40:31.000Z,85.75
2023-02-14T04:41:30.000Z,85.83
2023-02-14T04:42:30.000Z,85.93
2023-02-14T04:43:30.000Z,85.91
2023-02-14T04:44:32.000Z,85.80
2023-02-14T04:45:31.000Z,85.92
2023-02-14T04:46:30.000Z,85.81
2023-02-14T04:47:30.000Z,85.73
2023-02-14T04:48:30.000Z,85.85
2023-02-14T04:49:31.000Z,85.68
2023-02-14T04:50:31.000Z,85.53
2023-02-14T04:51:30.000Z,85.64
2023-02-14T04:52:31.000Z,85.39
2023-02-14T04:53:30.000Z,85.40
2023-02-14T04:54:31.000Z,85.40
2023-02-14T04:55:30.000Z,85.34
2023-02-14T04:56:30.000Z,85.52
2023-02-14T04:57:30.000Z,85.56
2023-02-14T04:58:31.000Z,85.76
2023-02-14T04:59:30.000Z,85.59
2023-02-14T05:00:30.000Z,85.69
2023-02-14T05:01:30.000Z,85.87
2023-02-14T05:02:30.000Z,85.88
2023-02-14T05:03:30.000Z,85.82
2023-02-14T05:04:30.000Z,85.87
2023-02-14T05:05:30.000Z,85.83
2023-02-14T05:06:31.000Z,85.79
2023-02-14T05:07:30.000Z,86.22
2023-02-14T05:08:30.000Z,86.00
2023-02-14T05:09:30.000Z,85.89
2023-02-14T05:10:30.000Z,85.87
2023-02-14T05:11:31.000Z,85.87
2023-02-14T05:12:30.000Z,85.81
2023-02-14T05:13:30.000Z,85.82
2023-02-14T05:14:30.000Z,86.25
2023-02-14T05:15:30.000Z,85.92
2023-02-14T05:16:31.000Z,86.08
2023-02-14T05:17:30.000Z,86.13
2023-02-14T05:18:30.000Z,85.94
2023-02-14T05:19:30.000Z,86.30
2023-02-14T05:20:30.000Z,86.61
2023-02-14T05:21:31.000Z,86.39
2023-02-14T05:22:30.000Z,86.28
2023-02-14T05:23:30.000Z,86.43
2023-02-14T05:24:30.000Z,86.52
2023-02-14T05:25:30.000Z,86.37
2023-02-14T05:26:30.000Z,86.55
2023-02-14T05:27:30.000Z,86.29
2023-02-14T05:28:31.000Z,86.50
2023-02-14T05:29:30.000Z,86.47
2023-02-14T05:30:31.000Z,86.58
2023-02-14T05:31:31.000Z,86.74
2023-02-14T05:32:30.000Z,86.87
2023-02-14T05:33:30.000Z,86.86
2023-02-14T05:34:30.000Z,86.75
2023-02-14T05:35:31.000Z,86.36
2023-02-14T05:36:31.000Z,86.40
2023-02-14T05:37:30.000Z,86.41
2023-02-14T05:38:31.000Z,86.76
2023-02-14T05:39:30.000Z,86.87
2023-02-14T05:40:32.000Z,86.98
2023-02-14T05:41:30.000Z,86.75
2023-02-14T05:42:30.000Z,86.67
2023-02-14T05:43:30.000Z,86.80
2023-02-14T05:44:30.000Z,86.99
2023-02-14T05:45:30.000Z,86.80
2023-02-14T05:46:30.000Z,86.71
2023-02-14T05:47:30.000Z,86.74
2023-02-14T05:48:31.000Z,86.77
2023-02-14T05:49:30.000Z,86.98
2023-02-14T05:50:30.000Z,86.97
2023-02-14T05:51:30.000Z,86.88
2023-02-14T05:52:30.000Z,86.63
2023-02-14T05:53:31.000Z,86.61
2023-02-14T05:54:30.000Z,86.74
2023-02-14T05:55:30.000Z,86.78
2023-02-14T05:56:30.000Z,86.84
2023-02-14T05:57:30.000Z,86.94
2023-02-14T05:58:31.000Z,86.99
2023-02-14T05:59:30.000Z,86.89
2023-02-14T06:00:31.000Z,86.70
2023-02-14T06:01:30.000Z,86.64
2023-02-14T06:02:31.000Z,86.59
2023-02-14T06:03:30.000Z,86.50
2023-02-14T06:04:30.000Z,86.65
2023-02-14T06:05:30.000Z,86.56
2023-02-14T06:06:30.000Z,86.81
2023-02-14T06:07:30.000Z,86.81
2023-02-14T06:08:30.000Z,86.49
2023-02-14T06:09:30.000Z,86.61
2023-02-14T06:10:30.000Z,86.55
2023-02-14T06:11:30.000Z,86.42
2023-02-14T06:12:30.000Z,86.45
2023-02-14T06:13:31.000Z,86.66
2023-02-14T06:14:31.000Z,86.35
2023-02-14T06:15:30.000Z,86.82
2023-02-14T06:16:30.000Z,86.76
2023-02-14T06:17:30.000Z,86.54
2023-02-14T06:18:30.000Z,86.92
2023-02-14T06:19:30.000Z,86.18
2023-02-14T06:20:31.000Z,86.12
2023-02-14T06:21:30.000Z,86.20
2023-02-14T06:22:31.000Z,86.16
2023-02-14T06:23:30.000Z,86.31
2023-02-14T06:24:30.000Z,86.32
2023-02-14T06:25:31.000Z,86.16
2023-02-14T06:26:32.000Z,86.19
2023-02-14T06:27:31.000Z,86.40
2023-02-14T06:28:30.000Z,86.43
2023-02-14T06:29:30.000Z,86.36
2023-02-14T06:30:31.000Z,86.51
2023-02-14T06:31:31.000Z,86.39
2023-02-14T06:32:30.000Z,86.37
2023-02-14T06:33:30.000Z,86.41
2023-02-14T06:34:31.000Z,86.44
2023-02-14T06:35:30.000Z,86.18
2023-02-14T06:36:31.000Z,86.16
2023-02-14T06:37:31.000Z,86.61
2023-02-14T06:38:30.000Z,86.24
2023-02-14T06:39:30.000Z,86.33
2023-02-14T06:40:30.000Z,86.51
2023-02-14T06:41:31.000Z,86.31
2023-02-14T06:42:30.000Z,86.33
2023-02-14T06:43:31.000Z,86.40
2023-02-14T06:44:31.000Z,86.80
2023-02-14T06:45:30.000Z,86.74
2023-02-14T06:46:30.000Z,86.37
2023-02-14T06:47:31.000Z,86.35
2023-02-14T06:48:31.000Z,86.78
2023-02-14T06:49:30.000Z,86.55
2023-02-14T06:50:31.000Z,86.36
2023-02-14T06:51:31.000Z,86.67
2023-02-14T06:52:32.000Z,86.61
2023-02-14T06:53:31.000Z,86.18
2023-02-14T06:54:30.000Z,86.32
2023-02-14T06:55:30.000Z,86.33
2023-02-14T06:56:30.000Z,86.37
2023-02-14T06:57:30.000Z,86.37
2023-02-14T06:58:31.000Z,86.23
2023-02-14T06:59:30.000Z,86.18
2023-02-14T07:00:31.000Z,86.07
2023-02-14T07:01:30.000Z,86.23
2023-02-14T07:02:30.000Z,86.10
2023-02-14T07:03:30.000Z,86.18
2023-02-14T07:04:30.000Z,86.34
2023-02-14T07:05:32.000Z,86.19
2023-02-14T07:06:30.000Z,86.05
2023-02-14T07:07:30.000Z,86.15
2023-02-14T07:08:30.000Z,86.10
2023-02-14T07:09:30.000Z,86.15
2023-02-14T07:10:32.000Z,86.40
2023-02-14T07:11:30.000Z,86.22
2023-02-14T07:12:30.000Z,86.49
2023-02-14T07:13:30.000Z,86.57
2023-02-14T07:14:31.000Z,86.49
2023-02-14T07:15:31.000Z,86.60
2023-02-14T07:16:31.000Z,86.61
2023-02-14T07:17:30.000Z,86.43
2023-02-14T07:18:30.000Z,86.37
2023-02-14T07:19:30.000Z,86.36
2023-02-14T07:20:31.000Z,86.37
2023-02-14T07:21:31.000Z,86.40
2023-02-14T07:22:31.000Z,86.40
2023-02-14T07:23:31.000Z,86.50
2023-02-14T07:24:30.000Z,86.53
2023-02-14T07:25:30.000Z,86.22
2023-02-14T07:26:30.000Z,86.21
2023-02-14T07:27:32.000Z,86.45
2023-02-14T07:28:32.000Z,86.26
2023-02-14T07:29:31.000Z,86.29
2023-02-14T07:30:31.000Z,86.46
2023-02-14T07:31:31.000Z,86.52
2023-02-14T07:32:31.000Z,86.55
2023-02-14T07:33:30.000Z,86.57
2023-02-14T07:34:31.000Z,86.66
2023-02-14T07:35:31.000Z,86.42
2023-02-14T07:36:31.000Z,86.61
2023-02-14T07:37:32.000Z,86.57
2023-02-14T07:38:30.000Z,86.30
2023-02-14T07:39:31.000Z,86.31
2023-02-14T07:40:31.000Z,86.30
2023-02-14T07:41:31.000Z,86.49
2023-02-14T07:42:31.000Z,86.24
2023-02-14T07:43:33.000Z,86.20
2023-02-14T07:44:30.000Z,86.35
2023-02-14T07:45:30.000Z,86.34
2023-02-14T07:46:30.000Z,86.07
2023-02-14T07:47:31.000Z,86.01
2023-02-14T07:48:31.000Z,85.99
2023-02-14T07:49:31.000Z,86.30
2023-02-14T07:50:30.000Z,86.02
2023-02-14T07:51:30.000Z,85.99
2023-02-14T07:52:30.000Z,86.17
2023-02-14T07:53:30.000Z,85.73
2023-02-14T07:54:30.000Z,85.69
2023-02-14T07:55:30.000Z,85.78
2023-02-14T07:56:30.000Z,85.75
2023-02-14T07:57:30.000Z,85.81
2023-02-14T07:58:31.000Z,85.94
2023-02-14T07:59:30.000Z,86.06
2023-02-14T08:00:31.000Z,86.18
2023-02-14T08:01:31.000Z,85.88
2023-02-14T08:02:30.000Z,86.29
2023-02-14T08:03:30.000Z,86.04
2023-02-14T08:04:31.000Z,86.19
2023-02-14T08:05:30.000Z,86.05
2023-02-14T08:06:30.000Z,85.75
2023-02-14T08:07:31.000Z,85.70
2023-02-14T08:08:31.000Z,85.77
2023-02-14T08:09:57.000Z,85.47
2023-02-14T08:11:05.000Z,85.49
2023-02-14T08:11:59.000Z,85.54
2023-02-14T08:12:37.000Z,84.95
2023-02-14T08:13:32.000Z,85.14
2023-02-14T08:14:31.000Z,85.11
2023-02-14T08:15:37.000Z,85.28
2023-02-14T08:16:33.000Z,85.41
2023-02-14T08:17:31.000Z,85.40
2023-02-14T08:18:38.000Z,85.37
2023-02-14T08:19:32.000Z,85.49
2023-02-14T08:20:31.000Z,85.62
2023-02-14T08:21:32.000Z,85.76
2023-02-14T08:22:32.000Z,85.79
2023-02-14T08:23:32.000Z,85.52
2023-02-14T08:24:32.000Z,85.49
2023-02-14T08:25:31.000Z,85.54
2023-02-14T08:26:31.000Z,85.65
2023-02-14T08:27:31.000Z,85.77
2023-02-14T08:28:33.000Z,85.80
2023-02-14T08:29:31.000Z,86.25
2023-02-14T08:30:35.000Z,85.97
2023-02-14T08:31:31.000Z,86.15
2023-02-14T08:32:31.000Z,85.74
2023-02-14T08:33:31.000Z,85.61
2023-02-14T08:34:33.000Z,85.64
2023-02-14T08:35:33.000Z,85.64
2023-02-14T08:36:32.000Z,85.60
2023-02-14T08:37:31.000Z,85.75
2023-02-14T08:38:31.000Z,85.74
2023-02-14T08:39:31.000Z,85.62
2023-02-14T08:40:32.000Z,85.64
2023-02-14T08:41:32.000Z,85.62
2023-02-14T08:42:31.000Z,85.64
2023-02-14T08:43:31.000Z,85.73
2023-02-14T08:44:32.000Z,85.91
2023-02-14T08:45:32.000Z,85.78
2023-02-14T08:46:31.000Z,85.88
2023-02-14T08:47:36.000Z,85.69
2023-02-14T08:48:33.000Z,85.89
2023-02-14T08:49:31.000Z,86.03
2023-02-14T08:50:33.000Z,85.57
2023-02-14T08:51:32.000Z,85.45
2023-02-14T08:52:32.000Z,85.33
2023-02-14T08:53:32.000Z,85.28
2023-02-14T08:54:32.000Z,85.31
2023-02-14T08:55:33.000Z,85.47
2023-02-14T08:56:32.000Z,85.36
2023-02-14T08:57:32.000Z,85.71
2023-02-14T08:58:32.000Z,85.66
2023-02-14T08:59:32.000Z,85.42
2023-02-14T09:00:32.000Z,85.42
2023-02-14T09:01:34.000Z,84.86
2023-02-14T09:02:33.000Z,84.80
2023-02-14T09:03:32.000Z,85.13
2023-02-14T09:04:33.000Z,84.63
2023-02-14T09:05:32.000Z,84.56
2023-02-14T09:06:36.000Z,84.66
2023-02-14T09:07:32.000Z,84.85
2023-02-14T09:08:35.000Z,85.00
2023-02-14T09:09:32.000Z,84.89
2023-02-14T09:10:32.000Z,84.80
2023-02-14T09:11:33.000Z,84.77
2023-02-14T09:12:33.000Z,84.74
2023-02-14T09:13:32.000Z,84.83
2023-02-14T09:14:34.000Z,84.91
2023-02-14T09:15:33.000Z,84.81
2023-02-14T09:16:32.000Z,84.46
2023-02-14T09:17:33.000Z,84.58
2023-02-14T09:18:33.000Z,84.32
2023-02-14T09:19:34.000Z,84.53
2023-02-14T09:20:32.000Z,84.70
2023-02-14T09:21:33.000Z,84.92
2023-02-14T09:22:33.000Z,85.04
2023-02-14T09:23:33.000Z,84.42
2023-02-14T09:24:34.000Z,84.33
2023-02-14T09:25:32.000Z,84.43
2023-02-14T09:26:35.000Z,84.40
2023-02-14T09:27:33.000Z,84.71
2023-02-14T09:28:33.000Z,84.70
2023-02-14T09:29:32.000Z,84.81
2023-02-14T09:30:32.000Z,84.74
2023-02-14T09:31:33.000Z,84.93
2023-02-14T09:32:32.000Z,84.71
2023-02-14T09:33:32.000Z,84.62
2023-02-14T09:34:37.000Z,84.69
2023-02-14T09:35:32.000Z,84.60
2023-02-14T09:36:32.000Z,84.70
2023-02-14T09:37:32.000Z,84.59
2023-02-14T09:38:32.000Z,84.55
2023-02-14T09:39:34.000Z,84.35
2023-02-14T09:40:33.000Z,84.47
2023-02-14T09:41:53.000Z,84.42
2023-02-14T09:42:46.000Z,84.21
2023-02-14T09:43:47.000Z,84.00
2023-02-14T09:44:41.000Z,84.12
2023-02-14T09:45:34.000Z,84.13
2023-02-14T09:46:40.000Z,83.76
2023-02-14T09:47:55.000Z,84.10
2023-02-14T09:48:37.000Z,83.97
2023-02-14T09:49:36.000Z,84.11
2023-02-14T09:50:48.000Z,84.09
2023-02-14T09:51:33.000Z,84.16
2023-02-14T09:52:32.000Z,84.09
2023-02-14T09:53:42.000Z,84.20
2023-02-14T09:54:34.000Z,84.23
2023-02-14T09:55:45.000Z,84.01
2023-02-14T09:56:42.000Z,83.66
2023-02-14T09:57:55.000Z,83.53
2023-02-14T09:58:40.000Z,83.50
2023-02-14T09:59:41.000Z,83.46
2023-02-14T10:00:54.000Z,83.42
2023-02-14T10:01:41.000Z,83.58
2023-02-14T10:02:42.000Z,83.68
2023-02-14T10:03:42.000Z,83.52
2023-02-14T10:04:42.000Z,83.53
2023-02-14T10:05:41.000Z,83.65
2023-02-14T10:06:42.000Z,83.51
2023-02-14T10:07:53.000Z,83.37
2023-02-14T10:08:45.000Z,83.28
2023-02-14T10:09:46.000Z,83.08
2023-02-14T10:10:38.000Z,83.07
2023-02-14T10:11:32.000Z,83.05
2023-02-14T10:12:37.000Z,83.25
2023-02-14T10:13:47.000Z,83.11
2023-02-14T10:14:35.000Z,83.11
2023-02-14T10:15:38.000Z,83.10
2023-02-14T10:16:42.000Z,83.18
2023-02-14T10:17:40.000Z,82.99
2023-02-14T10:18:41.000Z,83.03
2023-02-14T10:19:39.000Z,83.16
2023-02-14T10:20:40.000Z,83.30
2023-02-14T10:21:42.000Z,83.13
2023-02-14T10:22:40.000Z,83.26
2023-02-14T10:23:40.000Z,83.19
2023-02-14T10:24:39.000Z,83.16
2023-02-14T10:25:42.000Z,83.03
2023-02-14T10:26:38.000Z,83.04
2023-02-14T10:27:38.000Z,82.86
2023-02-14T10:28:37.000Z,82.72
2023-02-14T10:29:32.000Z,82.85
2023-02-14T10:30:37.000Z,82.89
2023-02-14T10:31:52.000Z,82.86
2023-02-14T10:32:46.000Z,82.94
2023-02-14T10:33:36.000Z,82.91
2023-02-14T10:34:42.000Z,82.85
2023-02-14T10:35:49.000Z,83.05
2023-02-14T10:36:45.000Z,82.87
2023-02-14T10:37:52.000Z,82.90
2023-02-14T10:38:42.000Z,82.87
2023-02-14T10:39:53.000Z,82.75
2023-02-14T10:40:43.000Z,82.77
2023-02-14T10:41:56.000Z,82.69
2023-02-14T10:42:48.000Z,82.95
2023-02-14T10:43:42.000Z,82.84
2023-02-14T10:44:42.000Z,83.02
2023-02-14T10:45:45.000Z,83.27
2023-02-14T10:46:46.000Z,83.08
2023-02-14T10:47:42.000Z,82.94
2023-02-14T10:48:42.000Z,83.18
2023-02-14T10:49:42.000Z,83.17
2023-02-14T10:50:46.000Z,82.95
2023-02-14T10:51:44.000Z,82.89
2023-02-14T10:52:47.000Z,83.63
2023-02-14T10:53:46.000Z,82.41
2023-02-14T10:54:40.000Z,82.20
2023-02-14T10:55:51.000Z,82.15
2023-02-14T10:56:36.000Z,82.03
2023-02-14T10:57:39.000Z,82.50
2023-02-14T10:58:37.000Z,82.52
2023-02-14T10:59:53.000Z,82.56
2023-02-14T11:00:37.000Z,82.65
2023-02-14T11:01:33.000Z,82.58
2023-02-14T11:02:37.000Z,82.60
2023-02-14T11:03:36.000Z,82.58
2023-02-14T11:04:34.000Z,82.43
2023-02-14T11:05:41.000Z,82.56
2023-02-14T11:06:32.000Z,82.44
2023-02-14T11:07:32.000Z,82.32
2023-02-14T11:08:35.000Z,82.09
2023-02-14T11:09:32.000Z,82.25
2023-02-14T11:10:32.000Z,82.25
2023-02-14T11:11:42.000Z,82.10
2023-02-14T11:12:38.000Z,81.87
2023-02-14T11:13:36.000Z,81.97
2023-02-14T11:14:37.000Z,81.93
2023-02-14T11:15:38.000Z,81.92
2023-02-14T11:16:35.000Z,81.69
2023-02-14T11:17:34.000Z,82.23
2023-02-14T11:18:35.000Z,82.71
2023-02-14T11:19:33.000Z,82.36
2023-02-14T11:20:32.000Z,82.68
2023-02-14T11:21:41.000Z,82.67
2023-02-14T11:22:33.000Z,82.41
2023-02-14T11:23:39.000Z,82.45
2023-02-14T11:24:37.000Z,82.37
2023-02-14T11:25:35.000Z,82.11
2023-02-14T11:26:33.000Z,82.38
2023-02-14T11:27:34.000Z,82.44
2023-02-14T11:28:33.000Z,82.29
2023-02-14T11:29:52.000Z,82.38
2023-02-14T11:30:37.000Z,82.18
2023-02-14T11:31:35.000Z,82.26
2023-02-14T11:32:34.000Z,82.15
2023-02-14T11:33:38.000Z,81.70
2023-02-14T11:34:38.000Z,81.96
2023-02-14T11:35:33.000Z,82.08
2023-02-14T11:36:39.000Z,82.02
2023-02-14T11:37:41.000Z,82.20
2023-02-14T11:38:36.000Z,82.32
2023-02-14T11:39:33.000Z,82.89
2023-02-14T11:40:35.000Z,82.23
2023-02-14T11:41:42.000Z,81.99
2023-02-14T11:42:50.000Z,81.74
2023-02-14T11:43:50.000Z,81.88
2023-02-14T11:44:33.000Z,81.49
2023-02-14T11:45:35.000Z,81.51
2023-02-14T11:46:35.000Z,81.74
2023-02-14T11:47:34.000Z,81.79
2023-02-14T11:48:33.000Z,82.13
2023-02-14T11:49:33.000Z,81.61
2023-02-14T11:50:32.000Z,81.41
2023-02-14T11:51:35.000Z,81.56
2023-02-14T11:52:44.000Z,81.44
2023-02-14T11:53:49.000Z,81.62
2023-02-14T11:54:35.000Z,81.48
2023-02-14T11:55:32.000Z,81.41
2023-02-14T11:56:42.000Z,81.53
2023-02-14T11:57:35.000Z,81.62
2023-02-14T11:58:37.000Z,81.64
2023-02-14T11:59:40.000Z,81.60
2023-02-14T12:00:32.000Z,81.70
2023-02-14T12:01:35.000Z,81.72
2023-02-14T12:02:38.000Z,81.70
2023-02-14T12:03:38.000Z,81.50
2023-02-14T12:04:39.000Z,81.42
2023-02-14T12:05:43.000Z,81.24
2023-02-14T12:06:34.000Z,81.05
2023-02-14T12:07:36.000Z,81.48
2023-02-14T12:08:36.000Z,81.34
2023-02-14T12:09:33.000Z,81.53
2023-02-14T12:10:35.000Z,81.47
2023-02-14T12:11:32.000Z,81.59
2023-02-14T12:12:33.000Z,81.76
2023-02-14T12:13:32.000Z,81.38
2023-02-14T12:14:33.000Z,81.55
2023-02-14T12:15:53.000Z,81.63
2023-02-14T12:16:40.000Z,81.57
2023-02-14T12:17:35.000Z,81.49
2023-02-14T12:18:43.000Z,81.67
2023-02-14T12:19:45.000Z,81.44
2023-02-14T12:20:58.000Z,81.34
2023-02-14T12:22:02.000Z,81.09
2023-02-14T12:22:44.000Z,81.49
2023-02-14T12:23:44.000Z,81.54
2023-02-14T12:24:50.000Z,81.35
2023-02-14T12:25:43.000Z,81.24
2023-02-14T12:26:43.000Z,81.48
2023-02-14T12:27:51.000Z,81.35
2023-02-14T12:28:49.000Z,81.44
2023-02-14T12:29:40.000Z,81.35
2023-02-14T12:30:33.000Z,81.43
2023-02-14T12:31:33.000Z,81.16
2023-02-14T12:32:33.000Z,81.23
2023-02-14T12:33:33.000Z,81.23
2023-02-14T12:34:34.000Z,80.71
2023-02-14T12:35:43.000Z,80.74
2023-02-14T12:36:47.000Z,80.72
2023-02-14T12:37:43.000Z,80.61
2023-02-14T12:38:48.000Z,80.80
2023-02-14T12:39:52.000Z,80.79
2023-02-14T12:40:43.000Z,80.59
2023-02-14T12:41:43.000Z,80.75
2023-02-14T12:42:56.000Z,80.67
2023-02-14T12:43:48.000Z,80.70
2023-02-14T12:44:56.000Z,80.70
2023-02-14T12:45:53.000Z,80.25
2023-02-14T12:46:43.000Z,80.10
2023-02-14T12:47:49.000Z,80.44
2023-02-14T12:48:48.000Z,80.96
2023-02-14T12:49:42.000Z,80.87
2023-02-14T12:50:46.000Z,80.82
2023-02-14T12:51:43.000Z,80.87
2023-02-14T12:52:53.000Z,80.34